createdAt,value
2022-12-02T00:00:52.332Z,11.10
2022-12-02T00:03:23.415Z,11.10
2022-12-02T00:05:54.138Z,11.10
2022-12-02T00:08:23.436Z,11.10
2022-12-02T00:10:53.255Z,11.10
2022-12-02T00:13:22.901Z,11.00
2022-12-02T00:15:52.427Z,11.00
2022-12-02T00:18:22.456Z,11.00
2022-12-02T00:20:50.968Z,11.00
2022-12-02T00:23:20.029Z,10.90
2022-12-02T00:25:49.884Z,10.90
2022-12-02T00:28:18.844Z,10.90
2022-12-02T00:30:47.375Z,10.90
2022-12-02T00:33:18.498Z,10.90
2022-12-02T00:35:48.554Z,10.90
2022-12-02T00:38:17.190Z,10.90
2022-12-02T00:40:46.138Z,10.80
2022-12-02T00:43:40.477Z,10.90
2022-12-02T00:46:26.519Z,10.90
2022-12-02T00:48:55.088Z,11.00
2022-12-02T00:51:24.960Z,10.90
2022-12-02T00:53:54.720Z,10.90
2022-12-02T00:56:23.315Z,10.90
2022-12-02T00:58:51.888Z,10.90
2022-12-02T01:01:20.677Z,10.90
2022-12-02T01:03:49.618Z,10.90
2022-12-02T01:06:20.041Z,10.80
2022-12-02T01:08:50.709Z,10.80
2022-12-02T01:11:19.682Z,10.80
2022-12-02T01:13:48.248Z,10.80
2022-12-02T01:16:17.065Z,10.80
2022-12-02T01:18:45.710Z,10.80
2022-12-02T01:21:16.207Z,10.90
2022-12-02T01:23:44.822Z,10.90
2022-12-02T01:26:14.873Z,10.90
2022-12-02T01:28:44.562Z,10.90
2022-12-02T01:31:13.140Z,11.00
2022-12-02T01:33:41.632Z,10.90
2022-12-02T01:36:10.745Z,11.00
2022-12-02T01:38:40.502Z,11.00
2022-12-02T01:41:09.182Z,11.00
2022-12-02T01:43:39.534Z,11.00
2022-12-02T01:46:08.484Z,11.00
2022-12-02T01:48:37.494Z,11.10
2022-12-02T01:51:06.548Z,11.10
2022-12-02T01:53:54.428Z,11.10
2022-12-02T01:56:23.070Z,11.10
2022-12-02T01:58:53.135Z,11.30
2022-12-02T02:01:29.184Z,11.20
2022-12-02T02:03:58.127Z,11.20
2022-12-02T02:06:27.671Z,11.20
2022-12-02T02:08:56.430Z,11.20
2022-12-02T02:11:25.947Z,11.20
2022-12-02T02:14:01.685Z,11.20
2022-12-02T02:16:30.504Z,11.20
2022-12-02T02:18:59.754Z,11.30
2022-12-02T02:21:31.076Z,11.30
2022-12-02T02:24:01.302Z,11.60
2022-12-02T02:26:30.832Z,11.30
2022-12-02T02:28:59.647Z,11.30
2022-12-02T02:31:28.834Z,11.30
2022-12-02T02:33:57.403Z,11.30
2022-12-02T02:36:26.103Z,11.40
2022-12-02T02:38:54.820Z,11.40
2022-12-02T02:41:25.002Z,11.40
2022-12-02T02:43:53.615Z,11.40
2022-12-02T02:46:22.688Z,11.50
2022-12-02T02:48:52.501Z,11.50
2022-12-02T02:51:22.267Z,11.50
2022-12-02T02:53:51.750Z,11.50
2022-12-02T02:56:20.415Z,11.50
2022-12-02T02:58:50.542Z,11.50
2022-12-02T03:01:22.675Z,11.60
2022-12-02T03:03:54.976Z,11.60
2022-12-02T03:06:43.131Z,11.60
2022-12-02T03:09:13.406Z,11.60
2022-12-02T03:11:43.007Z,11.60
2022-12-02T03:14:15.738Z,11.70
2022-12-02T03:16:45.064Z,11.70
2022-12-02T03:19:13.820Z,11.70
2022-12-02T03:21:42.609Z,11.70
2022-12-02T03:24:11.420Z,11.70
2022-12-02T03:26:40.722Z,11.70
2022-12-02T03:29:09.706Z,11.70
2022-12-02T03:31:58.932Z,11.80
2022-12-02T03:34:27.364Z,11.80
2022-12-02T03:36:56.069Z,11.80
2022-12-02T03:39:24.670Z,11.80
2022-12-02T03:41:53.225Z,11.80
2022-12-02T03:44:21.945Z,11.80
2022-12-02T03:46:50.616Z,11.90
2022-12-02T03:49:20.833Z,11.90
2022-12-02T03:52:08.365Z,11.90
2022-12-02T03:54:36.859Z,11.80
2022-12-02T03:57:06.271Z,11.90
2022-12-02T03:59:34.753Z,11.90
2022-12-02T04:02:03.342Z,11.90
2022-12-02T04:04:33.478Z,11.90
2022-12-02T04:07:02.073Z,11.90
2022-12-02T04:09:30.594Z,11.90
2022-12-02T04:11:59.478Z,11.90
2022-12-02T04:14:28.115Z,12.00
2022-12-02T04:16:57.352Z,12.00
2022-12-02T04:19:27.044Z,12.00
2022-12-02T04:21:57.227Z,12.00
2022-12-02T04:24:25.826Z,12.00
2022-12-02T04:26:54.271Z,12.00
2022-12-02T04:29:22.788Z,12.00
2022-12-02T04:31:51.386Z,11.90
2022-12-02T04:34:19.859Z,12.20
2022-12-02T04:36:48.478Z,12.00
2022-12-02T04:39:18.521Z,12.00
2022-12-02T04:41:47.155Z,12.00
2022-12-02T04:44:18.251Z,11.90
2022-12-02T04:46:47.418Z,12.00
2022-12-02T04:49:15.914Z,12.00
2022-12-02T04:51:44.876Z,12.00
2022-12-02T04:54:14.661Z,12.00
2022-12-02T04:56:44.674Z,12.00
2022-12-02T04:59:13.219Z,12.00
2022-12-02T05:01:41.835Z,12.00
2022-12-02T05:04:10.445Z,12.00
2022-12-02T05:06:39.023Z,12.00
2022-12-02T05:09:07.764Z,12.00
2022-12-02T05:11:36.819Z,12.00
2022-12-02T05:14:06.826Z,12.00
2022-12-02T05:16:35.521Z,12.00
2022-12-02T05:19:04.159Z,12.10
2022-12-02T05:21:32.744Z,12.10
2022-12-02T05:24:01.300Z,12.00
2022-12-02T05:26:29.826Z,12.00
2022-12-02T05:28:58.450Z,12.00
2022-12-02T05:31:28.910Z,12.00
2022-12-02T05:33:57.552Z,12.10
2022-12-02T05:36:26.092Z,12.00
2022-12-02T05:38:54.662Z,12.10
2022-12-02T05:41:23.106Z,12.10
2022-12-02T05:43:51.717Z,12.10
2022-12-02T05:46:21.684Z,12.10
2022-12-02T05:49:16.130Z,12.10
2022-12-02T05:51:48.379Z,12.10
2022-12-02T05:54:20.752Z,12.10
2022-12-02T05:56:49.756Z,12.10
2022-12-02T05:59:19.438Z,12.20
2022-12-02T06:01:49.782Z,12.20
2022-12-02T06:04:20.462Z,12.20
2022-12-02T06:06:49.237Z,12.20
2022-12-02T06:09:18.955Z,12.20
2022-12-02T06:11:48.601Z,12.20
2022-12-02T06:14:18.888Z,12.20
2022-12-02T06:16:48.762Z,12.20
2022-12-02T06:19:27.079Z,12.30
2022-12-02T06:22:18.054Z,12.30
2022-12-02T06:24:46.764Z,12.30
2022-12-02T06:27:16.268Z,12.30
2022-12-02T06:29:49.278Z,12.30
2022-12-02T06:32:21.258Z,12.40
2022-12-02T06:34:52.643Z,12.40
2022-12-02T06:37:23.315Z,12.40
2022-12-02T06:40:26.467Z,12.40
2022-12-02T06:42:44.418Z,12.40
2022-12-02T06:45:25.915Z,12.40
2022-12-02T06:48:14.977Z,12.40
2022-12-02T06:50:45.705Z,12.40
2022-12-02T06:53:21.246Z,12.50
2022-12-02T06:55:50.678Z,12.50
2022-12-02T06:58:28.189Z,12.50
2022-12-02T07:01:03.085Z,12.50
2022-12-02T07:03:32.652Z,12.50
2022-12-02T07:06:12.404Z,12.50
2022-12-02T07:08:41.139Z,12.40
2022-12-02T07:11:42.680Z,12.50
2022-12-02T07:14:14.429Z,12.60
2022-12-02T07:16:43.851Z,12.60
2022-12-02T07:19:15.071Z,12.60
2022-12-02T07:22:03.946Z,12.60
2022-12-02T07:24:32.465Z,12.60
2022-12-02T07:27:05.442Z,12.70
2022-12-02T07:29:34.905Z,12.70
2022-12-02T07:32:03.817Z,12.70
2022-12-02T07:34:51.369Z,12.80
2022-12-02T07:37:21.730Z,12.80
2022-12-02T07:39:50.187Z,12.80
2022-12-02T07:42:18.775Z,12.90
2022-12-02T07:44:47.314Z,12.90
2022-12-02T07:47:15.797Z,12.90
2022-12-02T07:49:44.204Z,12.90
2022-12-02T07:52:12.687Z,13.00
2022-12-02T07:54:42.575Z,13.00
2022-12-02T07:57:11.094Z,13.00
2022-12-02T07:59:39.721Z,13.00
2022-12-02T08:02:08.615Z,13.00
2022-12-02T08:04:37.394Z,13.00
2022-12-02T08:07:06.243Z,13.00
2022-12-02T08:09:34.765Z,13.00
2022-12-02T08:12:05.046Z,13.20
2022-12-02T08:14:33.694Z,13.10
2022-12-02T08:17:02.216Z,13.10
2022-12-02T08:19:30.813Z,13.20
2022-12-02T08:21:59.521Z,13.30
2022-12-02T08:24:28.004Z,13.30
2022-12-02T08:26:56.893Z,13.30
2022-12-02T08:29:26.837Z,13.30
2022-12-02T08:31:55.254Z,13.40
2022-12-02T08:34:23.894Z,13.40
2022-12-02T08:36:52.664Z,13.40
2022-12-02T08:39:21.212Z,13.50
2022-12-02T08:41:49.767Z,13.50
2022-12-02T08:44:18.251Z,13.60
2022-12-02T08:46:53.827Z,13.70
2022-12-02T08:49:23.098Z,13.80
2022-12-02T08:51:51.680Z,13.80
2022-12-02T08:54:20.135Z,13.80
2022-12-02T08:56:49.565Z,13.80
2022-12-02T08:59:18.110Z,13.90
2022-12-02T09:01:48.197Z,13.90
2022-12-02T09:04:16.832Z,14.00
2022-12-02T09:06:45.343Z,14.00
2022-12-02T09:09:14.285Z,14.20
2022-12-02T09:11:43.081Z,14.30
2022-12-02T09:14:11.636Z,14.40
2022-12-02T09:16:40.051Z,14.50
2022-12-02T09:19:10.508Z,14.60
2022-12-02T09:21:39.297Z,14.70
2022-12-02T09:24:08.043Z,14.80
2022-12-02T09:26:36.743Z,14.80
2022-12-02T09:29:05.446Z,14.80
2022-12-02T09:31:34.132Z,14.90
2022-12-02T09:34:02.908Z,14.90
2022-12-02T09:36:32.958Z,14.90
2022-12-02T09:39:01.783Z,15.00
2022-12-02T09:41:30.436Z,15.10
2022-12-02T09:43:59.041Z,15.20
2022-12-02T09:46:27.977Z,15.30
2022-12-02T09:48:59.669Z,15.50
2022-12-02T09:51:37.586Z,15.40
2022-12-02T09:54:07.769Z,15.40
2022-12-02T09:56:37.235Z,15.40
2022-12-02T09:59:11.854Z,15.40
2022-12-02T10:01:41.916Z,15.40
2022-12-02T10:04:10.920Z,15.40
2022-12-02T10:06:39.442Z,15.50
2022-12-02T10:09:12.153Z,15.40
2022-12-02T10:11:59.602Z,15.50
2022-12-02T10:14:28.295Z,15.50
2022-12-02T10:16:58.011Z,15.50
2022-12-02T10:19:26.734Z,15.50
2022-12-02T10:21:55.896Z,15.60
2022-12-02T10:24:39.103Z,15.60
2022-12-02T10:27:08.029Z,15.80
2022-12-02T10:29:36.800Z,15.80
2022-12-02T10:32:06.716Z,15.80
2022-12-02T10:34:36.545Z,15.90
2022-12-02T10:37:22.725Z,15.90
2022-12-02T10:40:08.000Z,16.00
2022-12-02T10:42:36.841Z,16.00
2022-12-02T10:45:19.102Z,16.00
2022-12-02T10:47:47.973Z,16.10
2022-12-02T10:50:18.069Z,16.10
2022-12-02T10:52:47.814Z,16.20
2022-12-02T10:55:18.127Z,16.20
2022-12-02T10:57:47.177Z,16.20
2022-12-02T11:00:16.872Z,16.30
2022-12-02T11:02:47.100Z,16.30
2022-12-02T11:05:17.716Z,16.40
2022-12-02T11:07:53.711Z,16.40
2022-12-02T11:10:25.196Z,16.40
2022-12-02T11:13:05.613Z,16.40
2022-12-02T11:15:41.016Z,16.50
2022-12-02T11:18:11.819Z,16.50
2022-12-02T11:20:42.124Z,16.50
2022-12-02T11:23:21.621Z,16.50
2022-12-02T11:26:11.208Z,16.50
2022-12-02T11:28:47.930Z,16.50
2022-12-02T11:31:18.897Z,16.50
2022-12-02T11:34:06.204Z,16.50
2022-12-02T11:37:12.243Z,16.50
2022-12-02T11:39:45.723Z,16.40
2022-12-02T11:42:20.850Z,16.30
2022-12-02T11:44:51.117Z,16.20
2022-12-02T11:47:32.679Z,16.10
2022-12-02T11:50:14.096Z,16.10
2022-12-02T11:52:43.378Z,16.00
2022-12-02T11:55:14.766Z,16.00
2022-12-02T11:57:45.787Z,15.90
2022-12-02T12:00:26.489Z,15.80
2022-12-02T12:03:17.310Z,15.70
2022-12-02T12:06:06.123Z,15.70
2022-12-02T12:08:35.269Z,15.60
2022-12-02T12:11:27.918Z,15.50
2022-12-02T12:14:03.970Z,15.50
2022-12-02T12:16:35.685Z,15.50
2022-12-02T12:19:05.091Z,15.40
2022-12-02T12:21:45.567Z,15.40
2022-12-02T12:24:28.573Z,15.40
2022-12-02T12:26:58.308Z,15.30
2022-12-02T12:29:28.365Z,15.40
2022-12-02T12:31:58.642Z,15.30
2022-12-02T12:34:27.151Z,15.20
2022-12-02T12:36:55.514Z,15.20
2022-12-02T12:39:24.123Z,15.20
2022-12-02T12:42:01.471Z,15.20
2022-12-02T12:44:32.169Z,15.10
2022-12-02T12:47:04.639Z,15.10
2022-12-02T12:49:33.752Z,15.10
2022-12-02T12:52:02.490Z,15.10
2022-12-02T12:54:31.397Z,15.00
2022-12-02T12:57:18.494Z,14.90
2022-12-02T12:59:46.926Z,14.90
2022-12-02T13:02:17.208Z,14.90
2022-12-02T13:04:45.826Z,14.90
2022-12-02T13:07:14.300Z,14.90
2022-12-02T13:09:42.907Z,14.90
2022-12-02T13:12:13.237Z,14.90
2022-12-02T13:14:42.417Z,14.90
2022-12-02T13:22:51.824Z,15.60
2022-12-02T13:25:20.966Z,15.50
2022-12-02T13:29:28.999Z,15.30
2022-12-02T13:31:57.535Z,15.30
2022-12-02T13:34:26.263Z,15.40
2022-12-02T13:36:54.948Z,15.30
2022-12-02T13:39:23.558Z,15.20
2022-12-02T13:41:52.656Z,15.10
2022-12-02T13:44:21.509Z,15.00
2022-12-02T13:46:53.631Z,14.90
2022-12-02T13:49:40.824Z,14.80
2022-12-02T13:52:10.260Z,14.70
2022-12-02T13:54:59.245Z,14.60
2022-12-02T13:57:32.063Z,14.40
2022-12-02T14:00:01.220Z,14.40
2022-12-02T14:02:31.708Z,14.30
2022-12-02T14:05:05.933Z,14.20
2022-12-02T14:07:37.364Z,14.20
2022-12-02T14:10:07.006Z,14.10
2022-12-02T14:12:36.384Z,14.10
2022-12-02T14:15:06.046Z,14.00
2022-12-02T14:17:36.400Z,14.00
2022-12-02T14:20:06.341Z,14.00
2022-12-02T14:22:35.545Z,14.00
2022-12-02T14:25:04.578Z,14.00
2022-12-02T14:27:33.827Z,13.90
2022-12-02T14:30:22.022Z,13.90
2022-12-02T14:32:52.575Z,13.90
2022-12-02T14:35:21.413Z,13.90
2022-12-02T14:37:50.322Z,13.90
2022-12-02T14:40:19.458Z,13.90
2022-12-02T14:42:48.381Z,13.80
2022-12-02T14:45:17.548Z,13.80
2022-12-02T14:47:46.631Z,13.80
2022-12-02T14:50:17.597Z,13.80
2022-12-02T14:52:46.569Z,13.80
2022-12-02T14:55:15.446Z,13.80
2022-12-02T14:57:44.446Z,13.80
2022-12-02T15:00:15.041Z,13.80
2022-12-02T15:02:44.702Z,13.70
2022-12-02T15:05:19.072Z,13.80
2022-12-02T15:07:48.786Z,13.70
2022-12-02T15:10:18.626Z,13.70
2022-12-02T15:12:47.753Z,13.70
2022-12-02T15:15:37.596Z,13.70
2022-12-02T15:18:06.446Z,13.70
2022-12-02T15:20:36.791Z,13.70
2022-12-02T15:23:05.877Z,13.70
2022-12-02T15:25:35.052Z,13.70
2022-12-02T15:28:04.106Z,13.70
2022-12-02T15:30:35.401Z,13.70
2022-12-02T15:33:04.913Z,13.70
2022-12-02T15:35:34.227Z,13.70
2022-12-02T15:38:04.899Z,13.70
2022-12-02T15:40:34.028Z,13.70
2022-12-02T15:43:03.081Z,13.70
2022-12-02T15:45:32.194Z,13.70
2022-12-02T15:48:01.337Z,13.70
2022-12-02T15:50:30.108Z,13.70
2022-12-02T15:52:59.108Z,13.60
2022-12-02T15:55:29.790Z,13.60
2022-12-02T15:57:58.766Z,13.60
2022-12-02T16:00:27.516Z,13.70
2022-12-02T16:02:56.787Z,13.60
2022-12-02T16:05:26.014Z,13.60
2022-12-02T16:07:55.070Z,13.60
2022-12-02T16:10:24.258Z,13.60
2022-12-02T16:12:54.678Z,13.60
2022-12-02T16:15:23.783Z,13.60
2022-12-02T16:17:52.648Z,13.60
2022-12-02T16:20:21.564Z,13.60
2022-12-02T16:22:50.508Z,13.60
2022-12-02T16:25:19.634Z,13.60
2022-12-02T16:27:48.541Z,13.60
2022-12-02T16:30:19.286Z,13.60
2022-12-02T16:32:48.294Z,13.70
2022-12-02T16:35:17.295Z,13.60
2022-12-02T16:37:46.849Z,13.60
2022-12-02T16:40:16.479Z,13.60
2022-12-02T16:42:45.809Z,13.60
2022-12-02T16:45:14.698Z,13.60
2022-12-02T16:47:45.017Z,13.60
2022-12-02T16:50:17.940Z,13.60
2022-12-02T16:53:05.981Z,13.60
2022-12-02T16:55:34.829Z,13.60
2022-12-02T16:58:03.870Z,13.60
2022-12-02T17:00:38.363Z,13.50
2022-12-02T17:03:08.917Z,13.50
2022-12-02T17:05:37.955Z,13.50
2022-12-02T17:08:07.558Z,13.50
2022-12-02T17:10:36.903Z,13.50
2022-12-02T17:13:06.352Z,13.50
2022-12-02T17:15:35.856Z,13.50
2022-12-02T17:18:05.136Z,13.50
2022-12-02T17:20:42.603Z,13.50
2022-12-02T17:23:15.000Z,13.50
2022-12-02T17:25:45.204Z,13.50
2022-12-02T17:28:14.252Z,13.50
2022-12-02T17:30:43.259Z,13.50
2022-12-02T17:33:12.363Z,13.50
2022-12-02T17:35:42.666Z,13.50
2022-12-02T17:38:11.631Z,13.50
2022-12-02T17:40:40.850Z,13.50
2022-12-02T17:43:09.686Z,13.50
2022-12-02T17:45:38.786Z,13.50
2022-12-02T17:48:07.847Z,13.50
2022-12-02T17:50:36.775Z,13.50
2022-12-02T17:53:07.265Z,13.50
2022-12-02T17:55:54.818Z,13.50
2022-12-02T17:58:24.116Z,13.50
2022-12-02T18:00:53.722Z,13.50
2022-12-02T18:03:23.120Z,13.40
2022-12-02T18:05:52.759Z,13.50
2022-12-02T18:08:23.575Z,13.40
2022-12-02T18:10:52.601Z,13.50
2022-12-02T18:13:21.819Z,13.40
2022-12-02T18:15:51.058Z,13.40
2022-12-02T18:18:20.444Z,13.40
2022-12-02T18:20:49.621Z,13.40
2022-12-02T18:23:19.042Z,13.40
2022-12-02T18:25:51.187Z,13.40
2022-12-02T18:28:20.162Z,13.40
2022-12-02T18:30:49.066Z,13.40
2022-12-02T18:33:18.022Z,13.40
2022-12-02T18:35:47.030Z,13.30
2022-12-02T18:38:16.002Z,13.30
2022-12-02T18:40:44.925Z,13.30
2022-12-02T18:43:15.483Z,13.30
2022-12-02T18:45:44.583Z,13.30
2022-12-02T18:48:13.701Z,13.40
2022-12-02T18:50:42.798Z,13.40
2022-12-02T18:53:11.893Z,13.30
2022-12-02T18:55:42.539Z,13.30
2022-12-02T18:58:11.559Z,13.30
2022-12-02T19:00:42.120Z,13.30
2022-12-02T19:03:11.225Z,13.30
2022-12-02T19:05:40.205Z,13.30
2022-12-02T19:08:09.453Z,13.30
2022-12-02T19:10:38.435Z,13.30
2022-12-02T19:13:07.348Z,13.30
2022-12-02T19:15:38.811Z,13.30
2022-12-02T19:18:10.860Z,13.20
2022-12-02T19:20:40.234Z,13.20
2022-12-02T19:23:09.175Z,13.20
2022-12-02T19:25:44.308Z,13.20
2022-12-02T19:28:15.070Z,13.10
2022-12-02T19:30:44.882Z,13.10
2022-12-02T19:33:15.301Z,13.10
2022-12-02T19:35:44.316Z,13.10
2022-12-02T19:38:15.355Z,13.10
2022-12-02T19:40:45.899Z,13.10
2022-12-02T19:43:15.251Z,13.10
2022-12-02T19:45:44.754Z,13.10
2022-12-02T19:48:15.203Z,13.10
2022-12-02T19:50:44.528Z,13.20
2022-12-02T19:53:13.528Z,13.10
2022-12-02T19:55:42.460Z,13.20
2022-12-02T19:58:11.461Z,13.20
2022-12-02T20:00:40.331Z,13.20
2022-12-02T20:03:09.329Z,13.20
2022-12-02T20:05:39.822Z,13.20
2022-12-02T20:08:08.824Z,13.20
2022-12-02T20:10:37.699Z,13.20
2022-12-02T20:13:06.610Z,13.10
2022-12-02T20:15:35.541Z,13.20
2022-12-02T20:18:04.531Z,13.20
2022-12-02T20:20:33.309Z,13.20
2022-12-02T20:23:03.608Z,13.20
2022-12-02T20:25:32.926Z,13.20
2022-12-02T20:28:01.866Z,13.20
2022-12-02T20:30:32.361Z,13.20
2022-12-02T20:33:02.183Z,13.20
2022-12-02T20:35:31.157Z,13.20
2022-12-02T20:38:01.067Z,13.20
2022-12-02T20:40:31.802Z,13.20
2022-12-02T20:43:00.795Z,13.20
2022-12-02T20:45:29.655Z,13.20
2022-12-02T20:47:58.897Z,13.20
2022-12-02T20:50:27.799Z,13.10
2022-12-02T20:52:56.867Z,13.10
2022-12-02T20:55:26.131Z,13.10
2022-12-02T20:57:56.736Z,13.10
2022-12-02T21:00:25.965Z,13.10
2022-12-02T21:02:54.889Z,13.10
2022-12-02T21:05:23.784Z,13.10
2022-12-02T21:07:52.951Z,13.10
2022-12-02T21:10:22.144Z,13.10
2022-12-02T21:12:53.636Z,13.10
2022-12-02T21:15:36.363Z,13.10
2022-12-02T21:18:05.620Z,13.10
2022-12-02T21:20:35.414Z,13.10
2022-12-02T21:23:05.403Z,13.10
2022-12-02T21:25:34.414Z,13.10
2022-12-02T21:28:03.269Z,13.10
2022-12-02T21:30:32.686Z,13.10
2022-12-02T21:33:03.672Z,13.10
2022-12-02T21:35:32.868Z,13.00
2022-12-02T21:38:01.692Z,13.00
2022-12-02T21:40:30.773Z,13.00
2022-12-02T21:42:59.840Z,13.10
2022-12-02T21:45:28.888Z,13.00
2022-12-02T21:47:58.211Z,13.00
2022-12-02T21:50:28.891Z,13.00
2022-12-02T21:52:57.722Z,13.00
2022-12-02T21:55:26.562Z,13.00
2022-12-02T21:57:55.436Z,13.00
2022-12-02T22:00:24.854Z,13.00
2022-12-02T22:02:53.741Z,13.00
2022-12-02T22:05:22.690Z,13.10
2022-12-02T22:07:53.010Z,13.00
2022-12-02T22:10:24.331Z,13.00
2022-12-02T22:12:54.795Z,13.10
2022-12-02T22:15:24.197Z,13.10
2022-12-02T22:17:53.480Z,13.10
2022-12-02T22:20:22.927Z,13.10
2022-12-02T22:22:53.476Z,13.10
2022-12-02T22:25:22.355Z,13.10
2022-12-02T22:27:51.220Z,13.10
2022-12-02T22:30:20.195Z,13.10
2022-12-02T22:32:49.038Z,13.10
2022-12-02T22:35:18.139Z,13.10
2022-12-02T22:37:47.061Z,13.10
2022-12-02T22:40:17.767Z,13.10
2022-12-02T22:42:46.846Z,13.10
2022-12-02T22:45:15.635Z,13.10
2022-12-02T22:47:44.491Z,13.00
2022-12-02T22:50:13.973Z,13.10
2022-12-02T22:52:42.874Z,13.10
2022-12-02T22:55:11.891Z,13.00
2022-12-02T22:57:42.283Z,13.00
2022-12-02T23:00:15.086Z,13.00
2022-12-02T23:02:44.184Z,13.10
2022-12-02T23:05:13.351Z,13.10
2022-12-02T23:07:42.342Z,13.00
2022-12-02T23:10:11.926Z,13.10
2022-12-02T23:12:42.276Z,13.00
2022-12-02T23:18:00.812Z,13.00
2022-12-02T23:20:29.969Z,13.00
2022-12-02T23:22:58.910Z,13.10
2022-12-02T23:25:27.933Z,13.10
2022-12-02T23:27:58.357Z,13.10
2022-12-02T23:30:29.556Z,13.10
2022-12-02T23:32:59.419Z,13.10
2022-12-02T23:35:29.259Z,13.10
2022-12-02T23:37:58.604Z,13.10
2022-12-02T23:40:28.074Z,13.10
2022-12-02T23:42:58.433Z,13.10
2022-12-02T23:45:27.194Z,13.10
2022-12-02T23:47:56.075Z,13.10
2022-12-02T23:50:24.970Z,13.10
2022-12-02T23:52:53.922Z,13.00
2022-12-02T23:55:23.584Z,13.10
2022-12-02T23:57:52.604Z,13.10
